Time;durP1;ratioP1;P1;durP2;ratioP2;P2;SDS_P1;SDS_P2;PMS_P1;PMS_P2;Temp;Humidity;BMP_temperature;BMP_pressure;BME280_temperature;BME280_humidity;BME280_pressure;Samples;Min_cycle;Max_cycle;Signal;HPM_P1;HPM_P2
2022/10/20 00:03:47;;;;;;;;;;;;;;;;;;10541626;28;19985;-60
2022/10/20 00:08:50;;;;;;;;;;;;;;;;;;10540850;28;19954;-60
2022/10/20 00:13:52;;;;;;;;;;;;;;;;;;10540562;28;19924;-60
2022/10/20 00:18:54;;;;;;;;;;;;;;;;;;10540004;28;20379;-60
2022/10/20 00:23:56;;;;;;;;;;;;;;;;;;10540157;28;19924;-60
2022/10/20 00:28:58;;;;;;;;;;;;;;;;;;10540301;28;20373;-60
2022/10/20 00:34:00;;;;;;;;;;;;;;;;;;10538721;28;19928;-61
2022/10/20 00:39:02;;;;;;;;;;;;;;;;;;10540679;28;19973;-60
2022/10/20 00:44:04;;;;;;;;;;;;;;;;;;10539650;28;19924;-60
2022/10/20 00:49:06;;;;;;;;;;;;;;;;;;10539916;28;19924;-60
2022/10/20 00:54:08;;;;;;;;;;;;;;;;;;10539517;28;19978;-60
2022/10/20 00:59:10;;;;;;;;;;;;;;;;;;10540346;28;19977;-60
2022/10/20 01:04:12;;;;;;;;;;;;;;;;;;10541130;28;20363;-60
2022/10/20 01:09:14;;;;;;;;;;;;;;;;;;10548615;28;19974;-60
2022/10/20 01:14:16;;;;;;;;;;;;;;;;;;10548419;28;19970;-60
2022/10/20 01:19:18;;;;;;;;;;;;;;;;;;10545672;28;19977;-60
2022/10/20 01:24:20;;;;;;;;;;;;;;;;;;10545516;28;19928;-60
2022/10/20 01:29:22;;;;;;;;;;;;;;;;;;10547784;28;19931;-60
2022/10/20 01:34:24;;;;;;;;;;;;;;;;;;10545078;28;20325;-60
2022/10/20 01:39:27;;;;;;;;;;;;;;;;;;10545540;28;19924;-60
2022/10/20 01:44:29;;;;;;;;;;;;;;;;;;10544778;28;20001;-60
2022/10/20 01:49:31;;;;;;;;;;;;;;;;;;10560225;22;20378;-64
2022/10/20 01:54:33;;;;;;;;;;;;;;;;;;10544613;28;19932;-63
2022/10/20 01:59:35;;;;;;;;;;;;;;;;;;10544865;28;20359;-65
2022/10/20 02:04:37;;;;;;;;;;;;;;;;;;10545117;28;19977;-65
2022/10/20 02:09:39;;;;;;;;;;;;;;;;;;10545217;28;19928;-64
2022/10/20 02:14:41;;;;;;;;;;;;;;;;;;10542559;28;19924;-64
2022/10/20 02:19:43;;;;;;;;;;;;;;;;;;10544151;28;19924;-64
2022/10/20 02:24:45;;;;;;;;;;;;;;;;;;10544496;28;19970;-65
2022/10/20 02:29:47;;;;;;;;;;;;;;;;;;10544739;28;20298;-65
2022/10/20 02:34:49;;;;;;;;;;;;;;;;;;10543106;28;19924;-65
2022/10/20 02:39:51;;;;;;;;;;;;;;;;;;10543991;28;19978;-65
2022/10/20 02:44:54;;;;;;;;;;;;;;;;;;10543312;28;20344;-65
2022/10/20 02:49:56;;;;;;;;;;;;;;;;;;10543785;28;20366;-65
2022/10/20 02:54:58;;;;;;;;;;;;;;;;;;10540162;28;19924;-65
2022/10/20 03:00:00;;;;;;;;;;;;;;;;;;10543558;28;20268;-65
2022/10/20 03:05:02;;;;;;;;;;;;;;;;;;10541166;28;19932;-65
2022/10/20 03:10:04;;;;;;;;;;;;;;;;;;10540717;28;19924;-65
2022/10/20 03:15:06;;;;;;;;;;;;;;;;;;10539715;28;19981;-65
2022/10/20 03:20:08;;;;;;;;;;;;;;;;;;10542702;28;20329;-66
2022/10/20 03:25:10;;;;;;;;;;;;;;;;;;10541581;28;19927;-65
2022/10/20 03:30:12;;;;;;;;;;;;;;;;;;10541756;28;20375;-65
2022/10/20 03:35:15;;;;;;;;;;;;;;;;;;10537047;28;19928;-65
2022/10/20 03:40:17;;;;;;;;;;;;;;;;;;10541990;28;20309;-65
2022/10/20 03:45:19;;;;;;;;;;;;;;;;;;10542389;28;19973;-65
2022/10/20 03:50:21;;;;;;;;;;;;;;;;;;10539588;28;19928;-65
2022/10/20 03:55:23;;;;;;;;;;;;;;;;;;10537670;28;20321;-65
2022/10/20 04:00:25;;;;;;;;;;;;;;;;;;10540648;28;19928;-65
2022/10/20 04:05:27;;;;;;;;;;;;;;;;;;10541611;28;19973;-65
2022/10/20 04:10:29;;;;;;;;;;;;;;;;;;10541494;28;19924;-65
2022/10/20 04:15:31;;;;;;;;;;;;;;;;;;10535023;28;20374;-65
2022/10/20 04:20:33;;;;;;;;;;;;;;;;;;10541110;28;19924;-66
2022/10/20 04:25:35;;;;;;;;;;;;;;;;;;10539741;28;19942;-65
2022/10/20 04:30:37;;;;;;;;;;;;;;;;;;10540314;28;20515;-65
2022/10/20 04:35:39;;;;;;;;;;;;;;;;;;10536697;28;19924;-65
2022/10/20 04:40:41;;;;;;;;;;;;;;;;;;10538295;28;19931;-65
2022/10/20 04:45:43;;;;;;;;;;;;;;;;;;10539737;28;20329;-64
2022/10/20 04:50:45;;;;;;;;;;;;;;;;;;10540420;28;19970;-65
2022/10/20 04:55:47;;;;;;;;;;;;;;;;;;10536619;28;19928;-65
2022/10/20 05:00:49;;;;;;;;;;;;;;;;;;10540204;28;19924;-66
2022/10/20 05:05:51;;;;;;;;;;;;;;;;;;10540123;28;19976;-65
2022/10/20 05:10:53;;;;;;;;;;;;;;;;;;10502314;28;20445;-65
2022/10/20 05:15:55;;;;;;;;;;;;;;;;;;10502690;28;19985;-65
2022/10/20 05:20:57;;;;;;;;;;;;;;;;;;10539958;28;19932;-65
2022/10/20 05:26:12;;;;;;;;;;;;;;;;;;10539809;28;19924;-65
2022/10/20 05:31:14;;;;;;;;;;;;;;;;;;10536756;28;19924;-65
2022/10/20 05:36:16;;;;;;;;;;;;;;;;;;10534009;28;19924;-65
2022/10/20 05:41:21;;;;;;;;;;;;;;;;;;10539533;28;20007;-65
2022/10/20 05:46:23;;;;;;;;;;;;;;;;;;10539200;28;19924;-65
2022/10/20 05:51:26;;;;;;;;;;;;;;;;;;10535477;28;20325;-65
2022/10/20 05:56:28;;;;;;;;;;;;;;;;;;10542241;28;19928;-65
2022/10/20 06:01:51;;;;;;;;;;;;;;;;;;10540084;28;20267;-65
2022/10/20 06:06:52;;;;;;;;;;;;;;;;;;10545603;28;19923;-65
2022/10/20 06:11:54;;;;;;;;;;;;;;;;;;10508317;28;19972;-65
2022/10/20 06:16:56;;;;;;;;;;;;;;;;;;10543466;28;20034;-65
2022/10/20 06:22:01;;;;;;;;;;;;;;;;;;10545597;28;19924;-65
2022/10/20 06:27:06;;;;;;;;;;;;;;;;;;10543594;28;20325;-65
2022/10/20 06:32:08;;;;;;;;;;;;;;;;;;10537266;28;19986;-65
2022/10/20 06:37:10;;;;;;;;;;;;;;;;;;10525677;28;20007;-65
2022/10/20 06:42:12;;;;;;;;;;;;;;;;;;10544256;28;20441;-66
2022/10/20 06:47:14;;;;;;;;;;;;;;;;;;10544249;28;19924;-65
2022/10/20 06:52:16;;;;;;;;;;;;;;;;;;10503517;28;19925;-67
2022/10/20 06:57:19;;;;;;;;;;;;;;;;;;10511656;28;20379;-66
2022/10/20 07:02:21;;;;;;;;;;;;;;;;;;10543214;28;19931;-66
2022/10/20 07:07:23;;;;;;;;;;;;;;;;;;10538071;28;19925;-66
2022/10/20 07:12:25;;;;;;;;;;;;;;;;;;10543007;28;19924;-66
2022/10/20 07:17:27;;;;;;;;;;;;;;;;;;10537212;28;19924;-65
2022/10/20 07:22:29;;;;;;;;;;;;;;;;;;10540205;28;19970;-65
2022/10/20 07:27:31;;;;;;;;;;;;;;;;;;10535499;28;20366;-67
2022/10/20 07:32:33;;;;;;;;;;;;;;;;;;10540841;28;19970;-65
2022/10/20 07:37:36;;;;;;;;;;;;;;;;;;10536149;28;20009;-67
2022/10/20 07:42:38;;;;;;;;;;;;;;;;;;10541823;28;20400;-66
2022/10/20 07:47:40;;;;;;;;;;;;;;;;;;10523799;28;19928;-66
2022/10/20 07:52:46;;;;;;;;;;;;;;;;;;10535571;28;19924;-66
2022/10/20 07:57:48;;;;;;;;;;;;;;;;;;10541247;28;19974;-66
2022/10/20 08:02:50;;;;;;;;;;;;;;;;;;10541131;28;19928;-66
2022/10/20 08:07:52;;;;;;;;;;;;;;;;;;10540788;28;19924;-65
2022/10/20 08:12:54;;;;;;;;;;;;;;;;;;10537296;28;19977;-66
2022/10/20 08:17:56;;;;;;;;;;;;;;;;;;10536259;28;19928;-67
2022/10/20 08:22:58;;;;;;;;;;;;;;;;;;10537802;28;19932;-66
2022/10/20 08:28:00;;;;;;;;;;;;;;;;;;10518738;28;19970;-66
2022/10/20 08:33:02;;;;;;;;;;;;;;;;;;10534116;28;19924;-66
2022/10/20 08:38:05;;;;;;;;;;;;;;;;;;10516524;28;19986;-66
2022/10/20 08:43:07;;;;;;;;;;;;;;;;;;10515476;28;19924;-66
2022/10/20 08:48:09;;;;;;;;;;;;;;;;;;10520463;28;20379;-66
2022/10/20 08:53:11;;;;;;;;;;;;;;;;;;10498318;28;19924;-66
2022/10/20 08:58:13;;;;;;;;;;;;;;;;;;10498485;28;19925;-66
2022/10/20 09:03:15;;;;;;;;;;;;;;;;;;10497346;28;20306;-66
2022/10/20 09:08:17;;;;;;;;;;;;;;;;;;10498342;28;19932;-66
2022/10/20 09:13:20;;;;;;;;;;;;;;;;;;10498394;28;19924;-67
2022/10/20 09:18:22;;;;;;;;;;;;;;;;;;10497951;28;19924;-66
2022/10/20 09:23:24;;;;;;;;;;;;;;;;;;10497418;28;19928;-67
2022/10/20 09:28:43;;;;;;;;;;;;;;;;;;10505007;28;20426;-67
2022/10/20 09:34:05;;;;;;;;;;;;;;;;;;10505643;28;20007;-67
2022/10/20 09:39:07;;;;;;;;;;;;;;;;;;10504614;28;19925;-68
2022/10/20 09:44:09;;;;;;;;;;;;;;;;;;10505312;28;19932;-68
2022/10/20 09:49:11;;;;;;;;;;;;;;;;;;10532133;28;19970;-67
2022/10/20 09:54:13;;;;;;;;;;;;;;;;;;10545994;28;19924;-67
2022/10/20 09:59:15;;;;;;;;;;;;;;;;;;10546416;28;19931;-67
2022/10/20 10:04:17;;;;;;;;;;;;;;;;;;10545474;28;20412;-67
2022/10/20 10:09:19;;;;;;;;;;;;;;;;;;10541114;28;19974;-67
2022/10/20 10:14:22;;;;;;;;;;;;;;;;;;10542264;28;19924;-68
2022/10/20 10:19:24;;;;;;;;;;;;;;;;;;10545582;28;19924;-68
2022/10/20 10:24:26;;;;;;;;;;;;;;;;;;10545062;28;19977;-69
2022/10/20 10:29:28;;;;;;;;;;;;;;;;;;10545239;28;19977;-68
2022/10/20 10:34:30;;;;;;;;;;;;;;;;;;10545357;28;19924;-68
2022/10/20 10:39:32;;;;;;;;;;;;;;;;;;10545085;28;19924;-67
2022/10/20 10:44:34;;;;;;;;;;;;;;;;;;10544924;28;19924;-68
2022/10/20 10:49:37;;;;;;;;;;;;;;;;;;10573670;28;20255;-69
2022/10/20 10:54:39;;;;;;;;;;;;;;;;;;10586996;28;19931;-68
2022/10/20 10:59:41;;;;;;;;;;;;;;;;;;10586511;28;19977;-68
2022/10/20 11:04:43;;;;;;;;;;;;;;;;;;10585604;28;20366;-69
2022/10/20 11:09:45;;;;;;;;;;;;;;;;;;10585576;28;20454;-68
2022/10/20 11:14:47;;;;;;;;;;;;;;;;;;10585952;28;19924;-68
2022/10/20 11:19:50;;;;;;;;;;;;;;;;;;10585768;28;19927;-68
2022/10/20 11:24:52;;;;;;;;;;;;;;;;;;10584965;28;20328;-68
2022/10/20 11:29:56;;;;;;;;;;;;;;;;;;10585343;28;19973;-67
2022/10/20 11:34:58;;;;;;;;;;;;;;;;;;10585132;28;19923;-67
2022/10/20 11:40:00;;;;;;;;;;;;;;;;;;10584929;28;19972;-67
2022/10/20 11:45:06;;;;;;;;;;;;;;;;;;10584781;28;20118;-66
2022/10/20 11:50:08;;;;;;;;;;;;;;;;;;10583065;28;19924;-66
2022/10/20 11:55:11;;;;;;;;;;;;;;;;;;10584523;28;19927;-66
2022/10/20 12:00:13;;;;;;;;;;;;;;;;;;10583512;28;20344;-66
2022/10/20 12:05:15;;;;;;;;;;;;;;;;;;10583878;28;19927;-66
2022/10/20 12:10:17;;;;;;;;;;;;;;;;;;10583178;28;19923;-66
2022/10/20 12:15:20;;;;;;;;;;;;;;;;;;10555955;28;19924;-65
2022/10/20 12:20:22;;;;;;;;;;;;;;;;;;10535293;28;19969;-65
2022/10/20 12:25:24;;;;;;;;;;;;;;;;;;10532514;28;19977;-65
2022/10/20 12:30:26;;;;;;;;;;;;;;;;;;10536389;28;20375;-65
2022/10/20 12:35:28;;;;;;;;;;;;;;;;;;10565629;28;20306;-65
2022/10/20 12:40:30;;;;;;;;;;;;;;;;;;10582663;28;19976;-66
2022/10/20 12:45:32;;;;;;;;;;;;;;;;;;10539643;28;19924;-66
2022/10/20 12:50:34;;;;;;;;;;;;;;;;;;10534087;28;19924;-66
2022/10/20 12:55:36;;;;;;;;;;;;;;;;;;10536719;28;20440;-67
2022/10/20 13:00:41;;;;;;;;;;;;;;;;;;10552446;28;19924;-66
2022/10/20 13:05:44;;;;;;;;;;;;;;;;;;10546645;28;19923;-66
2022/10/20 13:10:46;;;;;;;;;;;;;;;;;;10548738;28;19977;-66
2022/10/20 13:15:48;;;;;;;;;;;;;;;;;;10546253;28;20336;-66
2022/10/20 13:20:50;;;;;;;;;;;;;;;;;;10548318;28;19932;-66
2022/10/20 13:25:52;;;;;;;;;;;;;;;;;;10547133;28;20264;-65
2022/10/20 13:30:54;;;;;;;;;;;;;;;;;;10547138;28;19924;-66
2022/10/20 13:35:56;;;;;;;;;;;;;;;;;;10547703;28;19924;-65
2022/10/20 13:40:58;;;;;;;;;;;;;;;;;;10545801;28;19924;-65
2022/10/20 13:46:05;;;;;;;;;;;;;;;;;;10546958;28;20413;-66
2022/10/20 13:51:07;;;;;;;;;;;;;;;;;;10546371;28;19924;-66
2022/10/20 13:56:09;;;;;;;;;;;;;;;;;;10546932;28;19977;-66
2022/10/20 14:01:11;;;;;;;;;;;;;;;;;;10560296;22;19928;-70
2022/10/20 14:06:13;;;;;;;;;;;;;;;;;;10546525;28;19928;-70
2022/10/20 14:11:15;;;;;;;;;;;;;;;;;;10545172;28;20321;-70
2022/10/20 14:16:18;;;;;;;;;;;;;;;;;;10545575;28;19924;-69
2022/10/20 14:21:20;;;;;;;;;;;;;;;;;;10546019;28;19973;-70
2022/10/20 14:26:23;;;;;;;;;;;;;;;;;;10545723;28;19977;-69
2022/10/20 14:31:25;;;;;;;;;;;;;;;;;;10545045;28;19928;-70
2022/10/20 14:36:27;;;;;;;;;;;;;;;;;;10544760;28;20294;-70
2022/10/20 14:41:29;;;;;;;;;;;;;;;;;;10544581;28;19931;-70
2022/10/20 14:46:31;;;;;;;;;;;;;;;;;;10544912;28;19982;-69
2022/10/20 14:51:34;;;;;;;;;;;;;;;;;;10544662;28;19924;-70
2022/10/20 14:56:36;;;;;;;;;;;;;;;;;;10551367;28;19928;-70
2022/10/20 15:01:38;;;;;;;;;;;;;;;;;;10543272;28;19924;-70
2022/10/20 15:06:40;;;;;;;;;;;;;;;;;;10542523;28;20325;-70
2022/10/20 15:11:42;;;;;;;;;;;;;;;;;;10543000;28;19925;-70
2022/10/20 15:16:44;;;;;;;;;;;;;;;;;;10542432;28;20412;-71
2022/10/20 15:21:46;;;;;;;;;;;;;;;;;;10541133;28;19928;-70
2022/10/20 15:26:48;;;;;;;;;;;;;;;;;;10542347;28;19925;-70
2022/10/20 15:31:50;;;;;;;;;;;;;;;;;;10542305;28;19924;-70
2022/10/20 15:36:52;;;;;;;;;;;;;;;;;;10542177;28;19977;-70
2022/10/20 15:41:54;;;;;;;;;;;;;;;;;;10542873;28;19927;-70
2022/10/20 15:46:56;;;;;;;;;;;;;;;;;;10541187;28;19928;-70
2022/10/20 15:51:58;;;;;;;;;;;;;;;;;;10541145;28;20041;-70
2022/10/20 15:57:00;;;;;;;;;;;;;;;;;;10541490;28;19924;-70
2022/10/20 16:02:02;;;;;;;;;;;;;;;;;;10540121;28;20267;-70
2022/10/20 16:07:04;;;;;;;;;;;;;;;;;;10541005;28;19924;-70
2022/10/20 16:12:06;;;;;;;;;;;;;;;;;;10540739;28;19981;-70
2022/10/20 16:17:08;;;;;;;;;;;;;;;;;;10563890;28;19924;-70
2022/10/20 16:22:10;;;;;;;;;;;;;;;;;;10580667;28;19969;-70
2022/10/20 16:27:12;;;;;;;;;;;;;;;;;;10581937;28;19969;-70
2022/10/20 16:32:15;;;;;;;;;;;;;;;;;;10549167;28;19969;-70
2022/10/20 16:37:17;;;;;;;;;;;;;;;;;;10538770;28;19928;-69
2022/10/20 16:42:19;;;;;;;;;;;;;;;;;;10543899;28;19924;-69
2022/10/20 16:47:21;;;;;;;;;;;;;;;;;;10568340;28;19928;-70
2022/10/20 16:52:23;;;;;;;;;;;;;;;;;;10537590;28;19924;-70
2022/10/20 16:57:25;;;;;;;;;;;;;;;;;;10538721;28;19931;-69
2022/10/20 17:02:27;;;;;;;;;;;;;;;;;;10539465;28;19974;-70
2022/10/20 17:07:29;;;;;;;;;;;;;;;;;;10539590;28;19924;-69
2022/10/20 17:12:31;;;;;;;;;;;;;;;;;;10540220;28;19924;-69
2022/10/20 17:17:33;;;;;;;;;;;;;;;;;;10539842;28;19928;-70
2022/10/20 17:22:36;;;;;;;;;;;;;;;;;;10540123;28;19924;-69
2022/10/20 17:27:38;;;;;;;;;;;;;;;;;;10539044;28;20481;-69
2022/10/20 17:32:41;;;;;;;;;;;;;;;;;;10545153;28;19923;-69
2022/10/20 17:37:44;;;;;;;;;;;;;;;;;;10562767;28;19928;-69
2022/10/20 17:42:46;;;;;;;;;;;;;;;;;;10537938;28;19977;-70
2022/10/20 17:47:49;;;;;;;;;;;;;;;;;;10549388;28;19928;-69
2022/10/20 17:52:51;;;;;;;;;;;;;;;;;;10547561;28;19924;-69
2022/10/20 17:57:53;;;;;;;;;;;;;;;;;;10543935;28;20290;-69
2022/10/20 18:02:56;;;;;;;;;;;;;;;;;;10545592;28;19924;-69
2022/10/20 18:07:58;;;;;;;;;;;;;;;;;;10545854;28;19928;-70
2022/10/20 18:13:00;;;;;;;;;;;;;;;;;;10544112;28;20329;-70
2022/10/20 18:18:02;;;;;;;;;;;;;;;;;;10545932;28;19928;-70
2022/10/20 18:23:04;;;;;;;;;;;;;;;;;;10544725;28;19977;-69
2022/10/20 18:28:06;;;;;;;;;;;;;;;;;;10542589;28;20428;-69
2022/10/20 18:33:08;;;;;;;;;;;;;;;;;;10574718;28;19959;-69
2022/10/20 18:38:10;;;;;;;;;;;;;;;;;;10587525;28;19977;-70
2022/10/20 18:43:13;;;;;;;;;;;;;;;;;;10561412;28;19924;-69
2022/10/20 18:48:15;;;;;;;;;;;;;;;;;;10560097;28;20256;-69
2022/10/20 18:53:18;;;;;;;;;;;;;;;;;;10560855;28;20135;-69
2022/10/20 18:58:20;;;;;;;;;;;;;;;;;;10585750;28;19928;-69
2022/10/20 19:03:22;;;;;;;;;;;;;;;;;;10583281;28;19923;-69
2022/10/20 19:08:24;;;;;;;;;;;;;;;;;;10585694;28;20423;-69
2022/10/20 19:13:26;;;;;;;;;;;;;;;;;;10585494;28;20294;-69
2022/10/20 19:18:28;;;;;;;;;;;;;;;;;;10555777;28;19981;-69
2022/10/20 19:23:30;;;;;;;;;;;;;;;;;;10542542;28;19924;-69
2022/10/20 19:28:33;;;;;;;;;;;;;;;;;;10562842;28;19973;-69
2022/10/20 19:33:35;;;;;;;;;;;;;;;;;;10582377;28;19973;-69
2022/10/20 19:38:37;;;;;;;;;;;;;;;;;;10581214;28;19965;-69
2022/10/20 19:43:39;;;;;;;;;;;;;;;;;;10564869;28;19928;-69
2022/10/20 19:48:41;;;;;;;;;;;;;;;;;;10536741;28;19924;-69
2022/10/20 19:53:43;;;;;;;;;;;;;;;;;;10584567;28;19924;-69
2022/10/20 19:58:47;;;;;;;;;;;;;;;;;;10581372;28;19992;-69
2022/10/20 20:03:49;;;;;;;;;;;;;;;;;;10583595;28;19973;-69
2022/10/20 20:08:52;;;;;;;;;;;;;;;;;;10583674;28;19928;-69
2022/10/20 20:13:54;;;;;;;;;;;;;;;;;;10578515;28;20451;-69
2022/10/20 20:18:56;;;;;;;;;;;;;;;;;;10582172;28;19977;-69
2022/10/20 20:23:59;;;;;;;;;;;;;;;;;;10583389;28;19923;-69
2022/10/20 20:29:01;;;;;;;;;;;;;;;;;;10548492;28;19931;-69
2022/10/20 20:34:04;;;;;;;;;;;;;;;;;;10549117;28;19937;-69
2022/10/20 20:39:06;;;;;;;;;;;;;;;;;;10521462;28;19949;-70
2022/10/20 20:44:08;;;;;;;;;;;;;;;;;;10580063;28;19927;-69
2022/10/20 20:49:10;;;;;;;;;;;;;;;;;;10549455;28;20379;-70
2022/10/20 20:54:12;;;;;;;;;;;;;;;;;;10537267;28;19924;-70
2022/10/20 20:59:14;;;;;;;;;;;;;;;;;;10539890;28;20287;-69
2022/10/20 21:04:16;;;;;;;;;;;;;;;;;;10539769;28;19981;-69
2022/10/20 21:09:18;;;;;;;;;;;;;;;;;;10523267;28;19932;-69
2022/10/20 21:14:20;;;;;;;;;;;;;;;;;;10512741;28;19928;-70
2022/10/20 21:19:23;;;;;;;;;;;;;;;;;;10539251;28;20283;-70
2022/10/20 21:24:25;;;;;;;;;;;;;;;;;;10589294;28;19924;-70
2022/10/20 21:29:27;;;;;;;;;;;;;;;;;;10586924;28;19923;-70
2022/10/20 21:34:29;;;;;;;;;;;;;;;;;;10572166;28;19928;-70
2022/10/20 21:39:31;;;;;;;;;;;;;;;;;;10547753;28;19928;-70
2022/10/20 21:44:33;;;;;;;;;;;;;;;;;;10546832;28;20329;-69
2022/10/20 21:49:37;;;;;;;;;;;;;;;;;;10545290;28;19924;-69
2022/10/20 21:54:39;;;;;;;;;;;;;;;;;;10546326;28;19928;-69
2022/10/20 21:59:41;;;;;;;;;;;;;;;;;;10546260;28;19931;-69
2022/10/20 22:04:43;;;;;;;;;;;;;;;;;;10544839;28;19925;-69
2022/10/20 22:09:45;;;;;;;;;;;;;;;;;;10545791;28;19946;-70
2022/10/20 22:14:47;;;;;;;;;;;;;;;;;;10530250;28;19970;-69
2022/10/20 22:19:49;;;;;;;;;;;;;;;;;;10504258;28;19924;-70
2022/10/20 22:24:51;;;;;;;;;;;;;;;;;;10503372;28;20367;-70
2022/10/20 22:29:53;;;;;;;;;;;;;;;;;;10529537;28;19924;-69
2022/10/20 22:34:58;;;;;;;;;;;;;;;;;;10560797;28;20022;-69
2022/10/20 22:40:00;;;;;;;;;;;;;;;;;;10586891;28;19993;-69
2022/10/20 22:45:02;;;;;;;;;;;;;;;;;;10568625;28;19928;-70
2022/10/20 22:50:04;;;;;;;;;;;;;;;;;;10543131;28;19985;-69
2022/10/20 22:55:06;;;;;;;;;;;;;;;;;;10565393;28;19928;-70
2022/10/20 23:00:08;;;;;;;;;;;;;;;;;;10586138;28;20383;-69
2022/10/20 23:05:10;;;;;;;;;;;;;;;;;;10516705;28;19977;-69
2022/10/20 23:10:12;;;;;;;;;;;;;;;;;;10529690;28;19928;-69
2022/10/20 23:15:14;;;;;;;;;;;;;;;;;;10543919;28;19986;-69
2022/10/20 23:20:16;;;;;;;;;;;;;;;;;;10543130;28;20316;-69
2022/10/20 23:25:18;;;;;;;;;;;;;;;;;;10488120;28;19974;-69
2022/10/20 23:30:20;;;;;;;;;;;;;;;;;;10541754;28;19924;-69
2022/10/20 23:35:22;;;;;;;;;;;;;;;;;;10566626;28;20371;-69
2022/10/20 23:40:25;;;;;;;;;;;;;;;;;;10574985;28;20014;-70
2022/10/20 23:45:27;;;;;;;;;;;;;;;;;;10541838;28;19924;-70
2022/10/20 23:50:29;;;;;;;;;;;;;;;;;;10540902;28;19974;-70
2022/10/20 23:55:31;;;;;;;;;;;;;;;;;;10542382;28;19932;-69
